createdAt,value
2023-03-26T00:01:28.487Z,44.97
2023-03-26T00:03:59.100Z,53.55
2023-03-26T00:06:31.721Z,46.53
2023-03-26T00:09:01.635Z,44.40
2023-03-26T00:11:32.334Z,44.25
2023-03-26T00:14:02.093Z,45.47
2023-03-26T00:16:34.186Z,48.83
2023-03-26T00:19:05.731Z,43.92
2023-03-26T00:21:35.618Z,45.40
2023-03-26T00:24:13.454Z,50.50
2023-03-26T00:26:43.373Z,42.65
2023-03-26T00:29:13.861Z,41.42
2023-03-26T00:31:47.763Z,44.60
2023-03-26T00:34:19.882Z,43.33
2023-03-26T00:36:49.683Z,44.00
2023-03-26T00:39:19.421Z,44.42
2023-03-26T00:41:49.516Z,43.13
2023-03-26T00:44:19.292Z,43.13
2023-03-26T00:46:49.418Z,42.15
2023-03-26T00:49:20.380Z,40.45
2023-03-26T00:51:50.087Z,41.40
2023-03-26T00:54:19.794Z,48.97
2023-03-26T00:56:49.559Z,39.53
2023-03-26T00:59:19.358Z,39.28
2023-03-26T01:01:49.003Z,43.50
2023-03-26T01:04:32.472Z,37.15
2023-03-26T01:07:05.785Z,37.97
2023-03-26T01:09:39.504Z,38.30
2023-03-26T01:12:13.198Z,38.35
2023-03-26T01:14:43.698Z,38.03
2023-03-26T01:17:15.524Z,41.50
2023-03-26T01:20:13.021Z,38.88
2023-03-26T01:22:47.883Z,39.35
2023-03-26T01:25:17.807Z,37.55
2023-03-26T01:27:52.375Z,37.88
2023-03-26T01:30:46.966Z,40.10
2023-03-26T01:33:38.326Z,38.35
2023-03-26T01:36:35.032Z,36.92
2023-03-26T01:39:40.811Z,34.10
2023-03-26T01:42:23.121Z,33.10
2023-03-26T01:45:10.149Z,33.17
2023-03-26T01:47:42.762Z,33.37
2023-03-26T01:50:13.052Z,33.45
2023-03-26T01:52:42.963Z,32.25
2023-03-26T01:55:14.363Z,30.35
2023-03-26T01:58:19.614Z,30.77
2023-03-26T02:01:04.617Z,37.97
2023-03-26T02:03:41.138Z,31.38
2023-03-26T02:06:39.300Z,31.38
2023-03-26T02:09:16.598Z,29.20
2023-03-26T02:11:47.360Z,32.17
2023-03-26T02:14:18.281Z,32.10
2023-03-26T02:16:48.495Z,32.67
2023-03-26T02:19:23.010Z,35.83
2023-03-26T02:21:53.356Z,37.20
2023-03-26T02:24:23.119Z,36.40
2023-03-26T02:26:52.956Z,34.00
2023-03-26T02:29:31.241Z,33.70
2023-03-26T02:32:01.513Z,41.22
2023-03-26T02:34:31.395Z,35.90
2023-03-26T02:37:01.136Z,39.65
2023-03-26T02:39:30.985Z,40.97
2023-03-26T02:42:00.858Z,39.72
2023-03-26T02:44:30.929Z,40.90
2023-03-26T02:47:00.788Z,39.72
2023-03-26T02:49:30.763Z,39.53
2023-03-26T02:52:01.233Z,39.97
2023-03-26T02:54:31.400Z,39.28
2023-03-26T02:57:01.337Z,39.90
2023-03-26T02:59:30.979Z,40.05
2023-03-26T03:02:00.768Z,39.63
2023-03-26T03:04:30.508Z,41.60
2023-03-26T03:07:01.657Z,40.92
2023-03-26T03:09:31.418Z,39.92
2023-03-26T03:12:01.171Z,39.10
2023-03-26T03:14:30.934Z,38.60
2023-03-26T03:17:00.673Z,38.13
2023-03-26T03:19:33.857Z,39.55
2023-03-26T03:22:03.537Z,40.42
2023-03-26T03:24:35.486Z,39.65
2023-03-26T03:27:05.997Z,38.65
2023-03-26T03:29:35.671Z,38.47
2023-03-26T03:32:12.980Z,36.33
2023-03-26T03:35:40.640Z,38.90
2023-03-26T03:38:14.365Z,37.60
2023-03-26T03:40:44.660Z,38.83
2023-03-26T03:43:14.437Z,37.65
2023-03-26T03:45:44.447Z,37.53
2023-03-26T03:48:14.409Z,35.90
2023-03-26T03:50:44.203Z,37.55
2023-03-26T03:53:17.649Z,38.63
2023-03-26T03:55:54.795Z,37.70
2023-03-26T03:58:26.534Z,37.60
2023-03-26T04:01:02.547Z,37.10
2023-03-26T04:03:33.393Z,39.47
2023-03-26T04:06:08.569Z,37.53
2023-03-26T04:08:38.588Z,37.92
2023-03-26T04:11:08.584Z,38.22
2023-03-26T04:13:41.020Z,37.40
2023-03-26T04:16:13.162Z,36.33
2023-03-26T04:18:44.785Z,36.15
2023-03-26T04:21:17.636Z,36.97
2023-03-26T04:23:53.526Z,36.40
2023-03-26T04:26:30.003Z,36.45
2023-03-26T04:29:07.168Z,35.70
2023-03-26T04:31:39.558Z,36.25
2023-03-26T04:34:22.669Z,36.58
2023-03-26T04:36:58.720Z,36.85
2023-03-26T04:39:32.721Z,36.15
2023-03-26T04:42:05.682Z,34.53
2023-03-26T04:44:38.165Z,35.80
2023-03-26T04:47:16.963Z,36.50
2023-03-26T04:49:56.854Z,35.72
2023-03-26T04:52:29.165Z,31.38
2023-03-26T04:55:02.118Z,33.30
2023-03-26T04:57:56.158Z,30.23
2023-03-26T05:00:35.963Z,33.97
2023-03-26T05:03:07.208Z,33.60
2023-03-26T05:05:40.499Z,26.48
2023-03-26T05:08:39.470Z,24.67
2023-03-26T05:11:13.244Z,25.48
2023-03-26T05:13:44.521Z,28.40
2023-03-26T05:16:14.230Z,24.55
2023-03-26T05:18:43.926Z,17.90
2023-03-26T05:21:13.643Z,19.38
2023-03-26T05:23:43.406Z,24.73
2023-03-26T05:26:13.242Z,23.35
2023-03-26T05:28:42.944Z,23.08
2023-03-26T05:31:13.161Z,17.15
2023-03-26T05:33:42.946Z,16.58
2023-03-26T05:36:17.585Z,19.23
2023-03-26T05:38:51.640Z,20.30
2023-03-26T05:41:21.450Z,20.25
2023-03-26T05:43:51.301Z,22.23
2023-03-26T05:46:21.991Z,17.70
2023-03-26T05:48:53.740Z,20.85
2023-03-26T05:51:25.142Z,23.67
2023-03-26T05:53:54.949Z,22.83
2023-03-26T05:56:25.147Z,22.38
2023-03-26T05:58:54.850Z,25.05
2023-03-26T06:01:27.237Z,24.58
2023-03-26T06:03:57.328Z,24.83
2023-03-26T06:06:27.747Z,25.85
2023-03-26T06:09:01.162Z,26.58
2023-03-26T06:11:33.783Z,27.17
2023-03-26T06:14:05.105Z,26.58
2023-03-26T06:16:35.683Z,25.98
2023-03-26T06:19:05.444Z,26.63
2023-03-26T06:21:35.304Z,26.15
2023-03-26T06:24:05.019Z,26.15
2023-03-26T06:26:34.667Z,27.92
2023-03-26T06:29:04.506Z,29.27
2023-03-26T06:31:34.201Z,27.63
2023-03-26T06:34:03.856Z,29.65
2023-03-26T06:36:33.852Z,29.40
2023-03-26T06:39:07.758Z,29.10
2023-03-26T06:41:38.326Z,28.48
2023-03-26T06:44:08.032Z,32.40
2023-03-26T06:46:37.989Z,31.73
2023-03-26T06:49:08.301Z,29.88
2023-03-26T06:51:40.217Z,35.00
2023-03-26T06:54:09.892Z,36.25
2023-03-26T06:56:39.876Z,34.90
2023-03-26T06:59:09.717Z,34.78
2023-03-26T07:01:39.484Z,34.70
2023-03-26T07:04:09.209Z,33.40
2023-03-26T07:06:38.973Z,34.40
2023-03-26T07:09:08.724Z,33.50
2023-03-26T07:11:38.436Z,33.38
2023-03-26T07:14:08.394Z,32.83
2023-03-26T07:16:38.164Z,33.22
2023-03-26T07:19:07.778Z,32.00
2023-03-26T07:21:37.797Z,31.63
2023-03-26T07:24:15.944Z,31.95
2023-03-26T07:27:12.250Z,31.83
2023-03-26T07:29:51.735Z,31.98
2023-03-26T07:32:30.743Z,32.67
2023-03-26T07:35:39.705Z,32.72
2023-03-26T07:38:37.952Z,32.55
2023-03-26T07:41:32.032Z,31.67
2023-03-26T07:44:29.257Z,31.83
2023-03-26T07:47:01.328Z,30.27
2023-03-26T07:49:33.124Z,30.05
2023-03-26T07:52:03.109Z,30.42
2023-03-26T07:54:32.885Z,30.70
2023-03-26T07:57:07.982Z,32.00
2023-03-26T08:00:02.012Z,33.30
2023-03-26T08:03:11.327Z,29.75
2023-03-26T08:06:05.969Z,31.13
2023-03-26T08:09:07.608Z,30.30
2023-03-26T08:12:02.764Z,31.23
2023-03-26T08:14:59.262Z,31.35
2023-03-26T08:17:55.182Z,31.55
2023-03-26T08:20:49.843Z,31.08
2023-03-26T08:23:50.907Z,31.52
2023-03-26T08:26:48.927Z,30.50
2023-03-26T08:29:59.736Z,29.88
2023-03-26T08:32:29.546Z,30.80
2023-03-26T08:35:01.784Z,30.63
2023-03-26T08:37:31.590Z,30.50
2023-03-26T08:52:44.328Z,29.80
2023-03-26T08:55:42.606Z,29.40
2023-03-26T08:58:51.979Z,29.40
2023-03-26T09:02:00.916Z,29.80
2023-03-26T09:05:05.979Z,29.23
2023-03-26T09:08:05.994Z,29.95
2023-03-26T09:11:15.078Z,30.60
2023-03-26T09:14:24.056Z,30.95
2023-03-26T09:17:25.576Z,31.20
2023-03-26T09:20:29.963Z,31.88
2023-03-26T09:23:38.911Z,33.03
2023-03-26T09:26:48.811Z,32.78
2023-03-26T09:29:57.821Z,30.52
2023-03-26T09:32:51.151Z,31.52
2023-03-26T09:36:00.215Z,29.73
2023-03-26T09:38:47.849Z,31.15
2023-03-26T09:41:57.024Z,30.42
2023-03-26T09:44:53.241Z,32.67
2023-03-26T09:47:54.657Z,32.25
2023-03-26T09:50:55.880Z,31.95
2023-03-26T09:54:05.171Z,31.90
2023-03-26T09:57:00.604Z,31.17
2023-03-26T09:59:59.606Z,32.92
2023-03-26T10:03:08.488Z,31.80
2023-03-26T10:05:55.818Z,30.13
2023-03-26T10:11:27.337Z,31.50
2023-03-26T10:14:26.488Z,30.55
2023-03-26T10:17:30.149Z,31.02
2023-03-26T10:20:29.398Z,32.40
2023-03-26T10:23:27.788Z,32.25
2023-03-26T10:26:29.229Z,30.90
2023-03-26T10:29:27.667Z,30.80
2023-03-26T10:32:19.964Z,30.90
2023-03-26T10:35:29.059Z,31.73
2023-03-26T10:38:16.456Z,28.48
2023-03-26T10:44:08.401Z,30.80
2023-03-26T10:47:10.099Z,29.13
2023-03-26T10:50:10.747Z,29.38
2023-03-26T10:53:03.860Z,30.85
2023-03-26T10:55:48.413Z,31.88
2023-03-26T10:58:48.480Z,33.42
2023-03-26T11:01:44.844Z,32.67
2023-03-26T11:04:41.694Z,33.40
2023-03-26T11:07:40.121Z,31.83
2023-03-26T11:10:28.743Z,30.67
2023-03-26T11:13:28.435Z,30.48
2023-03-26T11:16:06.556Z,30.92
2023-03-26T11:19:02.724Z,33.03
2023-03-26T11:24:53.339Z,32.20
2023-03-26T11:27:38.725Z,32.77
2023-03-26T11:30:43.211Z,32.67
2023-03-26T11:33:18.641Z,33.75
2023-03-26T11:35:52.522Z,34.75
2023-03-26T11:38:45.338Z,37.15
2023-03-26T11:41:30.189Z,36.53
2023-03-26T11:44:07.658Z,36.00
2023-03-26T11:46:41.978Z,36.67
2023-03-26T11:49:14.648Z,37.53
2023-03-26T11:51:47.329Z,36.70
2023-03-26T11:54:18.032Z,35.63
2023-03-26T11:57:16.532Z,35.88
2023-03-26T12:00:19.559Z,37.35
2023-03-26T12:02:51.085Z,39.63
2023-03-26T12:05:28.147Z,47.63
2023-03-26T12:08:00.796Z,44.47
2023-03-26T12:10:40.437Z,43.67
2023-03-26T12:13:49.162Z,34.50
2023-03-26T12:16:22.544Z,34.35
2023-03-26T12:19:20.903Z,35.25
2023-03-26T12:21:54.464Z,33.17
2023-03-26T12:24:37.683Z,35.30
2023-03-26T12:27:30.156Z,35.40
2023-03-26T12:30:14.742Z,34.80
2023-03-26T12:32:47.040Z,35.03
2023-03-26T12:35:20.566Z,35.60
2023-03-26T12:37:50.408Z,33.28
2023-03-26T12:40:37.440Z,37.58
2023-03-26T12:44:48.896Z,40.13
2023-03-26T12:47:56.075Z,38.28
2023-03-26T12:49:25.853Z,38.38
2023-03-26T12:52:21.431Z,37.42
2023-03-26T12:55:30.629Z,36.38
2023-03-26T12:58:39.963Z,39.33
2023-03-26T13:01:29.165Z,38.53
2023-03-26T13:04:15.763Z,38.42
2023-03-26T13:07:00.301Z,38.55
2023-03-26T13:09:59.688Z,39.67
2023-03-26T13:12:49.619Z,38.67
2023-03-26T13:15:46.256Z,37.47
2023-03-26T13:18:55.105Z,36.70
2023-03-26T13:22:03.772Z,37.85
2023-03-26T13:24:52.988Z,37.45
2023-03-26T13:27:50.234Z,37.67
2023-03-26T13:30:45.629Z,37.67
2023-03-26T13:33:45.274Z,46.17
2023-03-26T13:36:46.142Z,38.30
2023-03-26T13:39:26.195Z,39.72
2023-03-26T13:42:38.526Z,40.95
2023-03-26T13:45:41.704Z,42.10
2023-03-26T13:48:30.466Z,42.00
2023-03-26T13:51:13.122Z,40.42
2023-03-26T13:53:51.478Z,40.25
2023-03-26T13:56:28.387Z,39.88
2023-03-26T13:59:31.582Z,39.07
2023-03-26T14:02:07.959Z,38.28
2023-03-26T14:04:49.678Z,38.85
2023-03-26T14:07:31.216Z,39.83
2023-03-26T14:10:09.241Z,38.58
2023-03-26T14:13:11.044Z,41.85
2023-03-26T14:15:48.874Z,42.75
2023-03-26T14:18:50.479Z,38.50
2023-03-26T14:21:51.384Z,43.65
2023-03-26T14:24:47.244Z,41.30
2023-03-26T14:27:41.404Z,41.75
2023-03-26T14:30:41.275Z,41.65
2023-03-26T14:33:47.449Z,43.05
2023-03-26T14:36:55.403Z,42.28
2023-03-26T14:40:07.410Z,38.70
2023-03-26T14:42:55.927Z,39.97
2023-03-26T14:45:53.758Z,40.67
2023-03-26T14:48:51.429Z,39.72
2023-03-26T14:51:48.555Z,38.10
2023-03-26T14:54:25.360Z,39.17
2023-03-26T14:57:26.513Z,42.22
2023-03-26T15:00:35.526Z,39.92
2023-03-26T15:03:44.338Z,40.28
2023-03-26T15:06:46.864Z,42.83
2023-03-26T15:09:55.743Z,43.38
2023-03-26T15:13:05.146Z,47.85
2023-03-26T15:16:11.084Z,49.38
2023-03-26T15:19:20.407Z,48.20
2023-03-26T15:22:29.220Z,48.03
2023-03-26T15:25:38.130Z,50.03
2023-03-26T15:28:47.478Z,50.70
2023-03-26T15:31:56.265Z,50.25
2023-03-26T15:35:02.251Z,48.40
2023-03-26T15:38:10.999Z,52.95
2023-03-26T15:41:13.039Z,44.95
2023-03-26T15:44:22.819Z,48.45
2023-03-26T15:47:03.841Z,50.00
2023-03-26T15:49:57.033Z,49.80
2023-03-26T15:52:38.152Z,47.72
2023-03-26T15:55:32.786Z,48.00
2023-03-26T15:58:25.720Z,48.15
2023-03-26T16:01:35.599Z,46.67
2023-03-26T16:04:50.346Z,47.47
2023-03-26T16:08:00.363Z,48.28
2023-03-26T16:11:09.825Z,47.67
2023-03-26T16:14:10.170Z,48.80
2023-03-26T16:17:00.837Z,47.15
2023-03-26T16:20:09.972Z,46.88
2023-03-26T16:23:03.604Z,46.22
2023-03-26T16:25:36.395Z,45.83
2023-03-26T16:28:30.526Z,47.65
2023-03-26T16:31:37.924Z,46.95
2023-03-26T16:34:30.181Z,46.78
2023-03-26T16:37:01.640Z,45.08
2023-03-26T16:39:45.331Z,46.70
2023-03-26T16:42:41.347Z,48.10
2023-03-26T16:45:31.624Z,48.05
2023-03-26T16:48:32.396Z,55.78
2023-03-26T16:51:41.503Z,51.60
2023-03-26T16:54:50.231Z,54.88
2023-03-26T16:57:35.825Z,51.35
2023-03-26T17:00:31.064Z,53.88
2023-03-26T17:03:35.705Z,49.42
2023-03-26T17:06:09.863Z,50.30
2023-03-26T17:09:00.229Z,49.85
2023-03-26T17:11:56.744Z,50.53
2023-03-26T17:15:07.641Z,51.42
2023-03-26T17:18:04.921Z,53.97
2023-03-26T17:20:59.419Z,53.35
2023-03-26T17:23:47.843Z,49.72
2023-03-26T17:26:56.897Z,53.78
2023-03-26T17:30:02.332Z,50.80
2023-03-26T17:33:11.194Z,50.38
2023-03-26T17:35:47.771Z,50.30
2023-03-26T17:38:56.485Z,50.55
2023-03-26T17:41:54.458Z,50.80
2023-03-26T17:44:46.724Z,52.03
2023-03-26T17:47:29.327Z,50.72
2023-03-26T17:50:31.579Z,51.78
2023-03-26T17:53:23.046Z,50.97
2023-03-26T17:55:54.108Z,52.40
2023-03-26T17:58:37.136Z,52.65
2023-03-26T18:01:28.861Z,49.83
2023-03-26T18:04:02.087Z,51.25
2023-03-26T18:07:06.944Z,55.10
2023-03-26T18:10:14.580Z,54.22
2023-03-26T18:13:23.415Z,54.75
2023-03-26T18:16:15.911Z,54.28
2023-03-26T18:18:59.660Z,56.58
2023-03-26T18:21:39.161Z,57.58
2023-03-26T18:24:15.504Z,58.28
2023-03-26T18:26:55.870Z,57.97
2023-03-26T18:29:31.048Z,57.45
2023-03-26T18:32:04.207Z,59.10
2023-03-26T18:34:35.838Z,58.13
2023-03-26T18:37:30.575Z,56.95
2023-03-26T18:40:21.886Z,58.20
2023-03-26T18:43:00.478Z,59.90
2023-03-26T18:45:38.965Z,57.80
2023-03-26T18:48:22.994Z,59.95
2023-03-26T18:50:59.079Z,59.00
2023-03-26T18:53:41.083Z,60.72
2023-03-26T18:56:49.983Z,58.25
2023-03-26T18:59:42.923Z,60.00
2023-03-26T19:02:16.185Z,57.85
2023-03-26T19:04:47.355Z,58.72
2023-03-26T19:07:24.453Z,56.70
2023-03-26T19:09:58.024Z,58.30
2023-03-26T19:12:37.358Z,58.85
2023-03-26T19:15:18.878Z,57.42
2023-03-26T19:17:53.113Z,56.15
2023-03-26T19:20:29.694Z,54.92
2023-03-26T19:23:00.321Z,53.83
2023-03-26T19:25:41.784Z,56.50
2023-03-26T19:28:37.388Z,56.33
2023-03-26T19:31:34.548Z,58.47
2023-03-26T19:34:27.852Z,63.10
2023-03-26T19:37:01.059Z,57.80
2023-03-26T19:39:48.184Z,57.90
2023-03-26T19:42:23.104Z,60.80
2023-03-26T19:44:53.706Z,63.58
2023-03-26T19:47:35.552Z,63.03
2023-03-26T19:50:35.160Z,63.40
2023-03-26T19:53:30.008Z,63.95
2023-03-26T19:56:20.386Z,60.67
2023-03-26T19:58:51.687Z,62.25
2023-03-26T20:01:25.350Z,61.33
2023-03-26T20:03:59.458Z,61.00
2023-03-26T20:06:43.199Z,63.85
2023-03-26T20:09:14.924Z,61.95
2023-03-26T20:11:44.684Z,60.80
2023-03-26T20:14:19.797Z,61.80
2023-03-26T20:16:49.549Z,62.90
2023-03-26T20:19:19.271Z,62.05
2023-03-26T20:21:48.973Z,59.88
2023-03-26T20:24:21.024Z,59.88
2023-03-26T20:26:50.726Z,60.25
2023-03-26T20:29:21.494Z,60.55
2023-03-26T20:31:51.674Z,59.50
2023-03-26T20:34:26.174Z,60.08
2023-03-26T20:37:01.310Z,61.75
2023-03-26T20:39:31.570Z,65.22
2023-03-26T20:42:01.216Z,66.93
2023-03-26T20:44:30.903Z,63.78
2023-03-26T20:47:00.795Z,63.22
2023-03-26T20:49:31.066Z,64.38
2023-03-26T20:52:02.136Z,62.83
2023-03-26T20:54:32.002Z,65.05
2023-03-26T20:57:01.759Z,64.70
2023-03-26T20:59:31.993Z,64.82
2023-03-26T21:02:01.969Z,64.93
2023-03-26T21:04:31.786Z,64.60
2023-03-26T21:07:11.077Z,62.85
2023-03-26T21:09:46.500Z,64.57
2023-03-26T21:12:35.720Z,63.50
2023-03-26T21:15:13.506Z,62.13
2023-03-26T21:17:52.795Z,62.33
2023-03-26T21:20:23.307Z,64.18
2023-03-26T21:23:18.785Z,63.13
2023-03-26T21:26:20.654Z,64.03
2023-03-26T21:28:51.657Z,63.13
2023-03-26T21:31:25.727Z,61.78
2023-03-26T21:33:56.905Z,65.43
2023-03-26T21:36:26.915Z,65.65
2023-03-26T21:38:57.309Z,65.72
2023-03-26T21:41:37.627Z,63.75
2023-03-26T21:44:07.362Z,66.03
2023-03-26T21:46:37.529Z,65.38
2023-03-26T21:49:07.663Z,66.05
2023-03-26T21:51:38.099Z,64.72
2023-03-26T21:54:26.216Z,64.15
2023-03-26T21:57:14.096Z,63.50
2023-03-26T22:02:42.244Z,62.03
2023-03-26T22:05:25.432Z,61.88
2023-03-26T22:08:06.015Z,63.15
2023-03-26T22:10:35.824Z,63.08
2023-03-26T22:13:05.438Z,60.97
2023-03-26T22:15:35.697Z,63.72
2023-03-26T22:18:06.266Z,62.30
2023-03-26T22:20:36.154Z,62.08
2023-03-26T22:23:07.382Z,62.63
2023-03-26T22:25:37.464Z,63.97
2023-03-26T22:28:07.665Z,62.53
2023-03-26T22:30:37.414Z,61.90
2023-03-26T22:33:07.507Z,62.33
2023-03-26T22:35:37.226Z,63.70
2023-03-26T22:38:07.500Z,65.32
2023-03-26T22:40:37.317Z,66.03
2023-03-26T22:43:06.994Z,67.72
2023-03-26T22:45:36.852Z,70.57
2023-03-26T22:48:06.604Z,69.65
2023-03-26T22:50:36.517Z,67.72
2023-03-26T22:53:06.576Z,65.28
2023-03-26T22:55:36.189Z,68.22
2023-03-26T22:58:05.879Z,63.53
2023-03-26T23:00:36.507Z,65.53
2023-03-26T23:03:06.250Z,66.22
2023-03-26T23:05:36.449Z,64.03
2023-03-26T23:08:06.558Z,64.25
2023-03-26T23:10:38.017Z,66.03
2023-03-26T23:13:07.811Z,62.50
2023-03-26T23:15:38.608Z,65.53
2023-03-26T23:18:08.973Z,66.07
2023-03-26T23:20:41.670Z,73.03
2023-03-26T23:23:11.548Z,73.90
2023-03-26T23:25:42.383Z,79.10
2023-03-26T23:28:12.553Z,85.72
2023-03-26T23:30:42.217Z,80.65
2023-03-26T23:33:12.926Z,74.30
2023-03-26T23:35:45.826Z,73.30
2023-03-26T23:38:15.596Z,83.75
2023-03-26T23:40:56.973Z,71.78
2023-03-26T23:43:28.323Z,81.68
2023-03-26T23:45:59.863Z,75.93
2023-03-26T23:48:31.172Z,79.32
2023-03-26T23:51:03.916Z,74.47
2023-03-26T23:53:34.862Z,71.75
2023-03-26T23:56:05.383Z,70.80
2023-03-26T23:58:35.133Z,71.47
